Time;durP1;ratioP1;P1;durP2;ratioP2;P2;SDS_P1;SDS_P2;PMS_P1;PMS_P2;Temp;Humidity;BMP_temperature;BMP_pressure;BME280_temperature;BME280_humidity;BME280_pressure;Samples;Min_cycle;Max_cycle;Signal;HPM_P1;HPM_P2
2023/03/02 00:02:18;;;;;;;;;;;;;;;28.65;61.94;101333.38;5047861;28;70314;-39
2023/03/02 00:04:52;;;;;;;;;;;;;;;28.58;61.55;101336.00;5047443;28;66572;-38
2023/03/02 00:07:27;;;;;;;;;;;;;;;28.03;61.22;101270.94;5049639;28;69900;-38
2023/03/02 00:09:58;;;;;;;;;;;;;;;28.48;60.96;101357.94;5042952;28;66150;-39
2023/03/02 00:12:31;;;;;;;;;;;;;;;28.43;60.28;101360.38;5034060;28;68654;-39
2023/03/02 00:15:01;;;;;;;;;;;;;;;28.42;61.00;101358.72;5045923;28;66769;-38
2023/03/02 00:17:32;;;;;;;;;;;;;;;28.48;61.18;101363.34;5054409;28;68779;-39
2023/03/02 00:20:09;;;;;;;;;;;;;;;28.59;61.84;101371.94;5044624;28;66530;-38
2023/03/02 00:22:42;;;;;;;;;;;;;;;28.68;60.98;101373.47;5047848;28;70389;-38
2023/03/02 00:25:14;;;;;;;;;;;;;;;28.76;61.24;101375.22;5046424;27;66121;-38
2023/03/02 00:27:44;;;;;;;;;;;;;;;28.79;61.11;101370.25;5041511;28;71443;-38
2023/03/02 00:30:15;;;;;;;;;;;;;;;28.84;60.95;101378.63;5040830;27;66985;-38
2023/03/02 00:32:45;;;;;;;;;;;;;;;28.88;61.04;101385.28;5049384;28;71340;-38
2023/03/02 00:35:16;;;;;;;;;;;;;;;28.92;60.79;101381.19;5039108;27;67491;-39
2023/03/02 00:37:47;;;;;;;;;;;;;;;28.94;60.43;101389.91;5057125;27;70545;-37
2023/03/02 00:40:18;;;;;;;;;;;;;;;28.95;60.60;101391.59;5043451;28;66438;-39
2023/03/02 00:42:48;;;;;;;;;;;;;;;29.00;60.23;101387.44;5049007;28;70905;-39
2023/03/02 00:45:19;;;;;;;;;;;;;;;29.02;60.55;101390.81;5048874;28;66294;-38
2023/03/02 00:47:49;;;;;;;;;;;;;;;29.04;59.86;101394.19;5047511;28;69850;-36
2023/03/02 00:50:20;;;;;;;;;;;;;;;29.06;60.04;101397.50;5041260;28;67028;-40
2023/03/02 00:52:51;;;;;;;;;;;;;;;29.09;59.91;101402.53;5052842;28;68493;-40
2023/03/02 00:55:24;;;;;;;;;;;;;;;29.07;59.10;101399.19;5039893;28;58484;-40
2023/03/02 00:57:55;;;;;;;;;;;;;;;29.07;58.51;101399.19;5060513;28;70633;-39
2023/03/02 01:00:30;;;;;;;;;;;;;;;28.73;57.74;101347.56;5051369;28;66132;-38
2023/03/02 01:03:04;;;;;;;;;;;;;;;29.15;57.99;101412.56;5050410;28;70600;-41
2023/03/02 01:05:36;;;;;;;;;;;;;;;29.18;57.67;101412.16;5040073;28;67125;-41
2023/03/02 01:08:06;;;;;;;;;;;;;;;29.20;56.93;101410.09;5046536;28;68492;-39
2023/03/02 01:10:37;;;;;;;;;;;;;;;29.23;57.22;101409.72;5046001;28;67004;-40
2023/03/02 01:13:08;;;;;;;;;;;;;;;29.25;56.50;101407.63;5049346;28;69749;-40
2023/03/02 01:15:38;;;;;;;;;;;;;;;29.27;56.98;101408.28;5045867;27;66947;-40
2023/03/02 01:18:08;;;;;;;;;;;;;;;29.29;56.85;101408.09;5053846;28;70065;-41
2023/03/02 01:20:40;;;;;;;;;;;;;;;29.31;56.65;101414.97;5079491;27;66356;-39
2023/03/02 01:23:11;;;;;;;;;;;;;;;29.32;56.49;101413.91;5043200;28;69510;-40
2023/03/02 01:25:41;;;;;;;;;;;;;;;29.34;56.42;101417.28;5044821;28;65824;-40
2023/03/02 01:28:11;;;;;;;;;;;;;;;29.36;56.26;101426.03;5041275;28;69255;-40
2023/03/02 01:30:41;;;;;;;;;;;;;;;29.39;55.57;101419.34;5050644;27;66023;-40
2023/03/02 01:33:12;;;;;;;;;;;;;;;29.40;55.62;101416.47;5048426;28;70856;-39
2023/03/02 01:35:44;;;;;;;;;;;;;;;29.42;56.00;101427.09;5044384;28;65935;-39
2023/03/02 01:38:14;;;;;;;;;;;;;;;29.44;55.31;101426.88;5047054;28;69313;-39
2023/03/02 01:40:45;;;;;;;;;;;;;;;29.46;55.85;101427.53;5065520;27;66431;-39
2023/03/02 01:43:15;;;;;;;;;;;;;;;29.47;55.22;101427.31;5055911;28;70118;-42
2023/03/02 01:45:46;;;;;;;;;;;;;;;29.49;55.38;101435.25;5052124;28;66176;-42
2023/03/02 01:48:25;;;;;;;;;;;;;;;29.51;55.47;101438.59;5049564;28;70552;-41
2023/03/02 01:50:56;;;;;;;;;;;;;;;29.27;55.40;101394.75;5089483;27;65761;-39
2023/03/02 01:53:28;;;;;;;;;;;;;;;29.55;54.96;101440.69;5064761;27;70336;-42
2023/03/02 01:56:02;;;;;;;;;;;;;;;29.58;55.19;101444.84;5084873;27;66924;-42
2023/03/02 01:58:35;;;;;;;;;;;;;;;29.59;54.58;101441.97;5052732;28;69185;-42
2023/03/02 02:01:14;;;;;;;;;;;;;;;29.61;54.55;101444.47;5034496;28;66485;-43
2023/03/02 02:03:47;;;;;;;;;;;;;;;29.64;54.59;101441.38;5075233;27;70672;-41
2023/03/02 02:06:25;;;;;;;;;;;;;;;29.65;54.81;101444.97;5057478;28;66037;-42
2023/03/02 02:08:56;;;;;;;;;;;;;;;29.68;54.52;101444.56;5053472;28;68825;-41
2023/03/02 02:11:27;;;;;;;;;;;;;;;29.69;54.28;101447.03;5051138;28;67580;-39
2023/03/02 02:13:59;;;;;;;;;;;;;;;29.71;54.76;101442.28;5056010;28;69183;-41
2023/03/02 02:16:31;;;;;;;;;;;;;;;29.72;54.13;101446.63;5050452;28;66778;-41
2023/03/02 02:19:03;;;;;;;;;;;;;;;29.75;54.44;101440.84;5057233;28;69793;-40
2023/03/02 02:21:35;;;;;;;;;;;;;;;29.77;53.97;101438.78;5090860;27;66077;-40
2023/03/02 02:24:17;;;;;;;;;;;;;;;29.80;54.50;101442.94;5040173;28;70430;-40
2023/03/02 02:26:49;;;;;;;;;;;;;;;29.82;53.93;101436.31;5044719;28;66712;-40
2023/03/02 02:29:44;;;;;;;;;;;;;;;29.85;54.19;101435.06;5050258;27;70120;-40
2023/03/02 02:32:18;;;;;;;;;;;;;;;29.87;54.29;101433.00;5045501;28;66566;-39
2023/03/02 02:34:48;;;;;;;;;;;;;;;29.90;53.80;101432.59;5055316;27;68990;-40
2023/03/02 02:37:22;;;;;;;;;;;;;;;29.93;54.17;101437.63;5050636;28;66628;-40
2023/03/02 02:39:53;;;;;;;;;;;;;;;29.95;53.89;101434.69;5045131;28;70737;-39
2023/03/02 02:42:31;;;;;;;;;;;;;;;29.97;54.13;101432.63;5041862;28;66072;-40
2023/03/02 02:45:06;;;;;;;;;;;;;;;30.00;54.27;101426.81;5060140;27;70593;-39
2023/03/02 02:47:36;;;;;;;;;;;;;;;30.02;53.66;101424.75;5052571;28;65746;-40
2023/03/02 02:50:09;;;;;;;;;;;;;;;30.04;53.56;101433.50;5050696;28;69434;-40
2023/03/02 02:52:40;;;;;;;;;;;;;;;30.06;53.89;101426.00;5044913;28;65916;-40
2023/03/02 02:55:14;;;;;;;;;;;;;;;30.09;53.83;101416.66;5042116;28;70212;-40
2023/03/02 02:57:45;;;;;;;;;;;;;;;30.11;53.65;101426.22;5071402;27;66004;-40
2023/03/02 03:00:18;;;;;;;;;;;;;;;30.14;53.44;101423.13;5050603;28;69759;-40
2023/03/02 03:02:52;;;;;;;;;;;;;;;30.17;53.86;101422.75;5051357;27;66577;-40
2023/03/02 03:05:24;;;;;;;;;;;;;;;30.19;53.50;101420.66;5051993;28;71447;-40
2023/03/02 03:08:30;;;;;;;;;;;;;;;30.22;53.95;101414.84;5045641;28;65733;-40
2023/03/02 03:11:00;;;;;;;;;;;;;;;30.25;53.45;101421.75;5056074;28;69413;-40
2023/03/02 03:13:31;;;;;;;;;;;;;;;30.27;53.76;101420.50;5052199;28;65816;-41
2023/03/02 03:16:02;;;;;;;;;;;;;;;29.82;53.52;101333.53;5056065;28;69933;-40
2023/03/02 03:18:33;;;;;;;;;;;;;;;30.32;53.18;101414.47;5053635;28;66502;-40
2023/03/02 03:21:05;;;;;;;;;;;;;;;30.36;53.45;101409.50;5046087;27;69840;-39
2023/03/02 03:23:37;;;;;;;;;;;;;;;30.39;53.48;101398.25;5074236;27;66871;-40
2023/03/02 03:26:08;;;;;;;;;;;;;;;30.41;53.46;101404.31;5047686;28;70055;-40
2023/03/02 03:28:38;;;;;;;;;;;;;;;30.44;53.04;101393.06;5042777;28;65717;-41
2023/03/02 03:31:09;;;;;;;;;;;;;;;30.46;52.70;101388.28;5050021;27;70047;-40
2023/03/02 03:33:40;;;;;;;;;;;;;;;30.49;53.30;101387.88;5051707;28;66820;-40
2023/03/02 03:36:10;;;;;;;;;;;;;;;30.50;53.01;101384.94;5041249;27;70137;-42
2023/03/02 03:38:40;;;;;;;;;;;;;;;30.55;52.81;101380.81;5053988;28;66472;-40
2023/03/02 03:41:11;;;;;;;;;;;;;;;30.58;53.19;101392.03;5049979;28;70265;-39
2023/03/02 03:43:42;;;;;;;;;;;;;;;30.60;52.45;101372.91;5055765;28;66059;-42
2023/03/02 03:46:12;;;;;;;;;;;;;;;30.63;52.92;101372.47;5045723;28;69366;-40
2023/03/02 03:48:43;;;;;;;;;;;;;;;30.65;52.61;101367.69;5050583;28;66965;-41
2023/03/02 03:51:13;;;;;;;;;;;;;;;30.68;52.70;101359.97;5040907;28;70152;-40
2023/03/02 03:53:45;;;;;;;;;;;;;;;30.71;52.81;101358.75;5058959;28;65896;-41
2023/03/02 03:56:15;;;;;;;;;;;;;;;30.73;52.74;101362.91;5049319;28;70493;-41
2023/03/02 03:58:45;;;;;;;;;;;;;;;30.76;52.30;101348.13;5052528;28;66752;-42
2023/03/02 04:01:16;;;;;;;;;;;;;;;30.79;52.18;101344.16;5049880;28;70273;-40
2023/03/02 04:03:47;;;;;;;;;;;;;;;30.82;52.14;101339.19;5055287;27;67486;-42
2023/03/02 04:06:17;;;;;;;;;;;;;;;30.84;52.24;101333.53;5045306;28;70594;-40
2023/03/02 04:08:48;;;;;;;;;;;;;;;30.86;51.89;101329.59;5047724;28;65209;-40
2023/03/02 04:11:18;;;;;;;;;;;;;;;30.89;52.11;101329.16;5058601;27;70189;-40
2023/03/02 04:13:48;;;;;;;;;;;;;;;30.92;51.75;101333.34;5065735;27;65788;-42
2023/03/02 04:16:19;;;;;;;;;;;;;;;30.95;52.13;101313.94;5050886;28;70278;-40
2023/03/02 04:18:49;;;;;;;;;;;;;;;30.98;51.68;101312.69;5044513;28;66035;-39
2023/03/02 04:21:20;;;;;;;;;;;;;;;31.00;52.12;101307.91;5041411;28;70330;-39
2023/03/02 04:23:50;;;;;;;;;;;;;;;31.01;51.73;101302.28;5044554;28;65589;-40
2023/03/02 04:26:22;;;;;;;;;;;;;;;31.04;51.40;101296.44;5028527;28;70655;-40
2023/03/02 04:28:56;;;;;;;;;;;;;;;31.05;51.71;101289.97;5043290;28;65896;-40
2023/03/02 04:31:27;;;;;;;;;;;;;;;31.07;51.34;101296.00;5062361;28;70243;-42
2023/03/02 04:33:59;;;;;;;;;;;;;;;31.09;51.59;101290.38;5081516;27;65704;-42
2023/03/02 04:36:30;;;;;;;;;;;;;;;31.10;51.68;101279.34;5070821;27;68990;-40
2023/03/02 04:39:04;;;;;;;;;;;;;;;31.12;51.19;101279.97;5053395;28;66574;-41
2023/03/02 04:41:35;;;;;;;;;;;;;;;31.13;51.29;101265.34;5040341;28;70126;-41
2023/03/02 04:44:05;;;;;;;;;;;;;;;31.15;51.26;101265.97;5042220;28;66431;-40
2023/03/02 04:46:35;;;;;;;;;;;;;;;31.17;51.34;101260.34;5037977;28;70308;-41
2023/03/02 04:49:07;;;;;;;;;;;;;;;31.20;51.46;101253.66;5041651;28;66242;-40
2023/03/02 04:51:38;;;;;;;;;;;;;;;31.22;51.64;101241.56;5050162;28;70328;-40
2023/03/02 04:54:22;;;;;;;;;;;;;;;31.25;51.08;101237.59;5038328;28;65966;-41
2023/03/02 04:56:53;;;;;;;;;;;;;;;31.27;51.42;101235.50;5048859;27;69583;-40
2023/03/02 04:59:25;;;;;;;;;;;;;;;31.30;51.44;101221.53;5057200;27;67021;-40
2023/03/02 05:01:57;;;;;;;;;;;;;;;31.31;51.40;101224.00;5047343;28;69720;-40
2023/03/02 05:04:28;;;;;;;;;;;;;;;31.33;51.04;101218.38;5043385;27;64681;-41
2023/03/02 05:06:58;;;;;;;;;;;;;;;31.35;51.26;101208.16;5043641;27;69784;-42
2023/03/02 05:09:29;;;;;;;;;;;;;;;31.39;51.33;101201.28;5044196;28;66740;-41
2023/03/02 05:12:00;;;;;;;;;;;;;;;31.40;50.99;101205.66;5074727;27;70494;-41
2023/03/02 05:14:30;;;;;;;;;;;;;;;31.43;50.86;101193.56;5043579;28;65716;-39
2023/03/02 05:17:01;;;;;;;;;;;;;;;31.46;51.17;101188.53;5045667;28;70233;-40
2023/03/02 05:19:31;;;;;;;;;;;;;;;31.48;51.13;101177.44;5045685;28;65503;-40
2023/03/02 05:22:01;;;;;;;;;;;;;;;31.50;51.25;101170.75;5065105;27;70470;-41
2023/03/02 05:24:31;;;;;;;;;;;;;;;31.52;51.03;101168.69;5052585;28;66570;-41
2023/03/02 05:27:02;;;;;;;;;;;;;;;31.54;51.08;101165.75;5052102;28;69729;-40
2023/03/02 05:29:32;;;;;;;;;;;;;;;31.55;51.31;101154.69;5046032;28;66435;-40
2023/03/02 05:32:02;;;;;;;;;;;;;;;31.59;51.48;101153.22;5086945;27;68479;-41
2023/03/02 05:34:32;;;;;;;;;;;;;;;31.63;51.25;101150.06;5050820;28;66549;-41
2023/03/02 05:37:03;;;;;;;;;;;;;;;31.65;51.19;101145.22;5057851;28;70090;-41
2023/03/02 05:39:33;;;;;;;;;;;;;;;31.67;50.95;101141.25;5049055;28;66897;-41
2023/03/02 05:42:04;;;;;;;;;;;;;;;31.72;51.23;101127.03;5051426;28;69490;-39
2023/03/02 05:44:34;;;;;;;;;;;;;;;31.74;50.82;101119.50;5049052;28;66673;-39
2023/03/02 05:47:05;;;;;;;;;;;;;;;31.76;50.75;101122.81;5083873;27;69426;-40
2023/03/02 05:49:36;;;;;;;;;;;;;;;31.60;50.29;101089.78;5083143;27;65734;-41
2023/03/02 05:52:06;;;;;;;;;;;;;;;31.81;50.98;101110.25;5053341;27;70649;-40
2023/03/02 05:54:37;;;;;;;;;;;;;;;31.85;50.36;101110.66;5058382;27;66156;-40
2023/03/02 05:57:08;;;;;;;;;;;;;;;31.87;50.75;101105.81;5053050;27;70629;-41
2023/03/02 05:59:38;;;;;;;;;;;;;;;31.90;50.52;101099.97;5049929;27;65897;-41
2023/03/02 06:02:08;;;;;;;;;;;;;;;31.92;50.62;101089.75;5045102;28;69706;-40
2023/03/02 06:04:41;;;;;;;;;;;;;;;31.96;50.44;101096.41;5045807;28;66466;-42
2023/03/02 06:07:12;;;;;;;;;;;;;;;31.98;50.48;101082.59;5044679;28;70812;-40
2023/03/02 06:09:42;;;;;;;;;;;;;;;32.01;50.51;101082.16;5041340;28;65896;-41
2023/03/02 06:12:13;;;;;;;;;;;;;;;32.04;50.38;101081.72;5049582;28;69899;-39
2023/03/02 06:14:43;;;;;;;;;;;;;;;32.07;50.21;101072.28;5053683;28;65452;-39
2023/03/02 06:17:14;;;;;;;;;;;;;;;32.10;50.24;101071.84;5057160;28;70882;-40
2023/03/02 06:19:44;;;;;;;;;;;;;;;32.13;50.06;101071.41;5052767;28;66450;-40
2023/03/02 06:22:14;;;;;;;;;;;;;;;32.16;49.98;101068.25;5065169;27;69673;-41
2023/03/02 06:24:45;;;;;;;;;;;;;;;32.18;50.13;101055.25;5051478;28;66342;-42
2023/03/02 06:27:15;;;;;;;;;;;;;;;32.20;50.01;101053.16;5051859;28;71042;-40
2023/03/02 06:29:45;;;;;;;;;;;;;;;32.23;49.94;101058.13;5045340;27;65996;-40
2023/03/02 06:32:16;;;;;;;;;;;;;;;32.25;50.04;101045.16;5048254;28;69090;-40
2023/03/02 06:34:47;;;;;;;;;;;;;;;32.28;49.84;101042.00;5046641;28;65427;-41
2023/03/02 06:37:17;;;;;;;;;;;;;;;32.31;50.08;101035.28;5049752;28;69698;-42
2023/03/02 06:39:47;;;;;;;;;;;;;;;32.33;49.84;101023.16;5045366;27;66906;-40
2023/03/02 06:42:17;;;;;;;;;;;;;;;32.36;49.85;101024.59;5058988;28;70632;-40
2023/03/02 06:44:48;;;;;;;;;;;;;;;32.38;49.72;101028.72;5045267;28;66329;-40
2023/03/02 06:47:18;;;;;;;;;;;;;;;32.41;49.61;101022.03;5042086;28;68995;-43
2023/03/02 06:49:49;;;;;;;;;;;;;;;32.44;49.71;101013.41;5043240;27;66025;-40
2023/03/02 06:52:20;;;;;;;;;;;;;;;32.46;49.57;101011.34;5045261;28;69110;-42
2023/03/02 06:54:50;;;;;;;;;;;;;;;32.48;49.66;101009.22;5051100;28;66386;-41
2023/03/02 06:57:21;;;;;;;;;;;;;;;32.49;49.54;100998.13;5052911;28;70059;-39
2023/03/02 06:59:51;;;;;;;;;;;;;;;32.54;49.42;100999.31;5052953;28;65691;-41
2023/03/02 07:02:23;;;;;;;;;;;;;;;32.57;49.62;100996.16;5044429;28;69778;-41
2023/03/02 07:04:53;;;;;;;;;;;;;;;32.58;49.54;100989.66;5051107;27;66350;-41
2023/03/02 07:07:24;;;;;;;;;;;;;;;32.64;49.59;100983.31;5051673;28;69701;-41
2023/03/02 07:09:54;;;;;;;;;;;;;;;32.65;49.42;100985.81;5050723;28;66293;-41
2023/03/02 07:12:25;;;;;;;;;;;;;;;32.69;49.47;100975.31;5046870;28;69085;-42
2023/03/02 07:14:55;;;;;;;;;;;;;;;32.72;49.22;100963.97;5048208;28;65625;-41
2023/03/02 07:17:26;;;;;;;;;;;;;;;32.76;49.32;100965.16;5048237;27;70610;-41
2023/03/02 07:19:56;;;;;;;;;;;;;;;32.79;49.25;100959.28;5044332;28;66363;-40
2023/03/02 07:22:26;;;;;;;;;;;;;;;32.82;49.17;100961.53;5040854;28;70235;-41
2023/03/02 07:24:56;;;;;;;;;;;;;;;32.85;49.33;100952.94;5050374;28;66826;-41
2023/03/02 07:27:27;;;;;;;;;;;;;;;32.88;48.99;100957.06;5049335;28;70780;-41
2023/03/02 07:29:58;;;;;;;;;;;;;;;32.91;49.28;100953.88;5045480;28;66451;-40
2023/03/02 07:32:28;;;;;;;;;;;;;;;32.94;49.18;100951.53;5045204;28;69903;-41
2023/03/02 07:34:59;;;;;;;;;;;;;;;32.98;48.90;100951.06;5052099;28;65708;-43
2023/03/02 07:37:29;;;;;;;;;;;;;;;32.99;48.84;100948.13;5053999;28;69591;-39
2023/03/02 07:40:00;;;;;;;;;;;;;;;33.03;48.96;100938.44;5042563;28;66895;-42
2023/03/02 07:42:31;;;;;;;;;;;;;;;33.06;48.76;100937.16;5063991;27;69370;-42
2023/03/02 07:45:03;;;;;;;;;;;;;;;33.10;48.76;100938.38;5050404;28;66682;-40
2023/03/02 07:47:33;;;;;;;;;;;;;;;33.12;48.60;100930.78;5043510;28;69650;-41
2023/03/02 07:50:04;;;;;;;;;;;;;;;33.14;48.48;100925.94;5054871;28;66509;-40
2023/03/02 07:52:35;;;;;;;;;;;;;;;33.18;48.58;100923.56;5038529;27;69402;-41
2023/03/02 07:55:05;;;;;;;;;;;;;;;33.23;48.57;100921.81;5045272;28;66022;-41
2023/03/02 07:57:36;;;;;;;;;;;;;;;33.25;48.47;100924.31;5047628;28;69383;-39
2023/03/02 08:00:06;;;;;;;;;;;;;;;33.28;48.54;100919.22;5047846;28;65672;-41
2023/03/02 08:02:41;;;;;;;;;;;;;;;33.33;48.30;100916.63;5044222;28;70527;-40
2023/03/02 08:05:11;;;;;;;;;;;;;;;33.38;48.44;100907.75;5044526;27;66111;-39
2023/03/02 08:07:42;;;;;;;;;;;;;;;33.43;48.08;100901.59;5049119;28;69317;-40
2023/03/02 08:10:12;;;;;;;;;;;;;;;33.46;48.14;100904.69;5046475;27;65152;-40
2023/03/02 08:12:43;;;;;;;;;;;;;;;33.49;47.93;100906.94;5043286;28;68948;-40
2023/03/02 08:15:13;;;;;;;;;;;;;;;33.53;48.08;100899.97;5043752;28;66070;-41
2023/03/02 08:17:44;;;;;;;;;;;;;;;33.55;47.97;100908.72;5050603;28;68878;-40
2023/03/02 08:20:14;;;;;;;;;;;;;;;33.58;47.84;100893.81;5051494;27;66131;-41
2023/03/02 08:22:44;;;;;;;;;;;;;;;33.62;48.09;100886.00;5048607;28;69738;-40
2023/03/02 08:25:14;;;;;;;;;;;;;;;33.65;47.91;100886.34;5055297;27;65962;-41
2023/03/02 08:27:44;;;;;;;;;;;;;;;33.69;47.91;100887.53;5047931;28;70017;-40
2023/03/02 08:30:16;;;;;;;;;;;;;;;33.73;47.54;100888.69;5053449;28;66037;-41
2023/03/02 08:32:46;;;;;;;;;;;;;;;33.77;47.49;100889.06;5047186;28;70041;-41
2023/03/02 08:35:16;;;;;;;;;;;;;;;33.81;47.70;100895.66;5051087;28;65375;-40
2023/03/02 08:37:47;;;;;;;;;;;;;;;33.86;47.54;100892.25;5048233;28;69781;-40
2023/03/02 08:40:17;;;;;;;;;;;;;;;33.89;47.44;100883.59;5049202;28;66741;-42
2023/03/02 08:42:54;;;;;;;;;;;;;;;33.85;47.24;100874.25;5043523;28;69299;-40
2023/03/02 08:45:24;;;;;;;;;;;;;;;33.95;47.48;100886.16;5043655;28;66275;-40
2023/03/02 08:47:54;;;;;;;;;;;;;;;33.98;47.09;100885.69;5044062;28;69929;-41
2023/03/02 08:50:24;;;;;;;;;;;;;;;33.33;47.12;100797.00;5042887;28;66759;-40
2023/03/02 08:52:55;;;;;;;;;;;;;;;34.03;47.26;100887.69;5048029;28;69098;-42
2023/03/02 08:55:25;;;;;;;;;;;;;;;34.05;47.19;100898.38;5041233;28;65552;-40
2023/03/02 08:57:55;;;;;;;;;;;;;;;34.08;47.00;100890.53;5055480;28;69768;-40
2023/03/02 09:00:26;;;;;;;;;;;;;;;34.12;46.87;100896.31;5056124;28;66328;-40
2023/03/02 09:03:01;;;;;;;;;;;;;;;34.14;46.73;100891.47;5052308;28;70351;-40
2023/03/02 09:05:31;;;;;;;;;;;;;;;34.15;46.98;100896.66;5039809;28;66704;-41
2023/03/02 09:08:01;;;;;;;;;;;;;;;34.19;46.50;100903.28;5051417;28;69278;-41
2023/03/02 09:10:32;;;;;;;;;;;;;;;34.20;46.69;100904.94;5048906;28;65773;-40
2023/03/02 09:13:03;;;;;;;;;;;;;;;34.21;47.00;100901.16;5048208;28;70413;-40
2023/03/02 09:15:36;;;;;;;;;;;;;;;34.25;46.84;100913.19;5042126;27;65827;-39
2023/03/02 09:18:06;;;;;;;;;;;;;;;34.26;46.53;100920.28;5089519;27;70724;-40
2023/03/02 09:20:37;;;;;;;;;;;;;;;34.25;46.78;100924.09;5050852;28;66591;-41
2023/03/02 09:23:07;;;;;;;;;;;;;;;33.93;48.39;100931.00;5050037;27;70374;-40
2023/03/02 09:25:38;;;;;;;;;;;;;;;33.72;49.26;100937.94;5050766;28;67183;-40
2023/03/02 09:28:08;;;;;;;;;;;;;;;33.63;49.99;100932.03;5044196;28;69712;-39
2023/03/02 09:30:38;;;;;;;;;;;;;;;33.55;50.48;100940.53;5028797;28;65135;-40
2023/03/02 09:33:08;;;;;;;;;;;;;;;33.50;50.85;100932.22;5052791;28;70009;-41
2023/03/02 09:35:38;;;;;;;;;;;;;;;33.42;51.28;100941.56;5046698;28;66783;-42
2023/03/02 09:38:14;;;;;;;;;;;;;;;33.39;51.88;100947.47;5042105;28;68821;-40
2023/03/02 09:41:11;;;;;;;;;;;;;;;33.38;52.24;100946.66;5041593;28;65696;-41
2023/03/02 09:44:00;;;;;;;;;;;;;;;33.33;52.35;100954.69;5043026;28;69304;-41
2023/03/02 09:46:33;;;;;;;;;;;;;;;33.29;52.59;100945.34;5043479;27;65008;-39
2023/03/02 09:49:06;;;;;;;;;;;;;;;33.26;52.55;100947.69;5042274;28;69702;-40
2023/03/02 09:51:57;;;;;;;;;;;;;;;33.25;52.81;100946.88;5045771;28;67349;-42
2023/03/02 09:54:29;;;;;;;;;;;;;;;33.22;52.97;100941.91;5042204;28;70773;-40
2023/03/02 09:57:00;;;;;;;;;;;;;;;33.23;53.08;100954.44;5047050;28;66395;-40
2023/03/02 09:59:46;;;;;;;;;;;;;;;33.24;52.82;100952.53;5044958;28;71543;-41
2023/03/02 10:02:34;;;;;;;;;;;;;;;33.22;53.36;100957.41;5036365;28;65203;-39
2023/03/02 10:05:07;;;;;;;;;;;;;;;33.20;52.99;100960.34;5045629;27;70661;-40
2023/03/02 10:07:38;;;;;;;;;;;;;;;33.20;53.44;100968.50;5052693;28;67252;-41
2023/03/02 10:10:08;;;;;;;;;;;;;;;33.19;53.45;100957.88;5045567;28;70182;-41
2023/03/02 10:12:46;;;;;;;;;;;;;;;33.19;53.55;100958.69;5045271;28;65571;-40
2023/03/02 10:15:21;;;;;;;;;;;;;;;33.16;53.83;100964.59;5049014;28;69994;-41
2023/03/02 10:17:54;;;;;;;;;;;;;;;33.15;54.15;100968.38;5059309;27;65751;-41
2023/03/02 10:20:44;;;;;;;;;;;;;;;33.15;53.78;100962.94;5051513;28;69817;-40
2023/03/02 10:23:18;;;;;;;;;;;;;;;33.13;53.28;100970.50;5047707;28;65182;-42
2023/03/02 10:26:04;;;;;;;;;;;;;;;33.13;53.27;100965.91;5048022;28;70704;-43
2023/03/02 10:28:40;;;;;;;;;;;;;;;33.12;53.33;100966.13;5055306;28;66878;-41
2023/03/02 10:31:23;;;;;;;;;;;;;;;33.12;53.98;100968.84;5048021;28;69952;-42
2023/03/02 10:33:54;;;;;;;;;;;;;;;33.10;54.44;100966.38;5052447;28;65981;-41
2023/03/02 10:36:25;;;;;;;;;;;;;;;33.09;54.34;100963.88;5049958;28;70352;-43
2023/03/02 10:38:57;;;;;;;;;;;;;;;33.09;54.22;100974.75;5050356;28;66486;-40
2023/03/02 10:41:31;;;;;;;;;;;;;;;33.07;54.59;100976.84;5049074;28;70521;-41
2023/03/02 10:44:05;;;;;;;;;;;;;;;33.08;55.58;100968.47;5044585;28;66438;-42
2023/03/02 10:46:40;;;;;;;;;;;;;;;33.08;56.37;100979.34;5054088;28;69729;-42
2023/03/02 10:49:24;;;;;;;;;;;;;;;33.08;56.62;100978.53;5043263;28;67115;-41
2023/03/02 10:51:58;;;;;;;;;;;;;;;33.07;56.60;100974.13;5049349;28;69381;-43
2023/03/02 10:54:29;;;;;;;;;;;;;;;33.04;56.45;100980.91;5049393;28;66158;-42
2023/03/02 10:57:01;;;;;;;;;;;;;;;33.24;55.93;100977.84;5054656;28;69980;-42
2023/03/02 10:59:31;;;;;;;;;;;;;;;33.36;56.27;100981.41;5049598;28;65400;-42
2023/03/02 11:02:02;;;;;;;;;;;;;;;33.43;56.62;100981.28;5043460;28;70656;-41
2023/03/02 11:04:33;;;;;;;;;;;;;;;33.52;56.05;100984.50;5052309;28;65718;-40
2023/03/02 11:07:22;;;;;;;;;;;;;;;33.55;55.91;100984.06;5047427;28;71641;-44
2023/03/02 11:10:03;;;;;;;;;;;;;;;33.58;56.12;100989.84;5042825;27;67084;-41
2023/03/02 11:12:35;;;;;;;;;;;;;;;33.61;55.58;100993.16;5041490;27;69964;-43
2023/03/02 11:15:24;;;;;;;;;;;;;;;33.62;55.30;100990.19;5042485;28;65503;-40
2023/03/02 11:17:59;;;;;;;;;;;;;;;33.62;55.09;100998.34;5059315;27;69253;-43
2023/03/02 11:20:32;;;;;;;;;;;;;;;33.63;54.97;101001.91;5078892;27;66036;-42
2023/03/02 11:23:25;;;;;;;;;;;;;;;33.63;55.03;101000.03;5046628;28;70673;-41
2023/03/02 11:26:03;;;;;;;;;;;;;;;33.62;54.69;101001.06;5039849;28;65252;-42
2023/03/02 11:28:39;;;;;;;;;;;;;;;33.61;54.47;101010.31;5064953;27;70716;-43
2023/03/02 11:31:15;;;;;;;;;;;;;;;33.61;54.72;101009.47;5049648;28;67103;-42
2023/03/02 11:34:05;;;;;;;;;;;;;;;33.58;54.56;101011.59;5050247;28;70617;-42
2023/03/02 11:36:53;;;;;;;;;;;;;;;33.58;54.90;101010.78;5046142;28;66580;-39
2023/03/02 11:39:56;;;;;;;;;;;;;;;33.59;54.79;101017.88;5044019;28;70355;-41
2023/03/02 11:42:31;;;;;;;;;;;;;;;33.56;54.75;101012.91;5049338;28;66842;-42
2023/03/02 11:45:10;;;;;;;;;;;;;;;33.56;54.74;101029.22;5047186;28;70182;-41
2023/03/02 11:47:47;;;;;;;;;;;;;;;33.54;54.66;101026.75;5053145;28;66290;-43
2023/03/02 11:50:33;;;;;;;;;;;;;;;33.50;54.25;101032.84;5042256;28;69310;-41
2023/03/02 11:53:06;;;;;;;;;;;;;;;33.50;54.13;101041.00;5047188;28;66695;-41
2023/03/02 11:55:42;;;;;;;;;;;;;;;33.48;54.52;101040.41;5045178;28;70319;-42
2023/03/02 11:58:16;;;;;;;;;;;;;;;33.48;54.05;101048.56;5045034;28;66021;-42
2023/03/02 12:00:47;;;;;;;;;;;;;;;33.46;53.91;101058.84;5044567;28;69993;-41
2023/03/02 12:03:17;;;;;;;;;;;;;;;33.43;54.14;101051.16;5045398;28;67983;-42
2023/03/02 12:05:50;;;;;;;;;;;;;;;33.42;54.41;101061.22;5049610;28;70800;-41
2023/03/02 12:08:20;;;;;;;;;;;;;;;33.42;53.80;101068.53;5041912;27;66980;-41
2023/03/02 12:10:59;;;;;;;;;;;;;;;33.40;53.72;101062.50;5046150;28;69778;-40
2023/03/02 12:13:31;;;;;;;;;;;;;;;33.36;53.43;101062.97;5050247;28;65357;-41
2023/03/02 12:16:01;;;;;;;;;;;;;;;33.36;53.22;101067.59;5040439;28;71064;-43
2023/03/02 12:18:43;;;;;;;;;;;;;;;33.33;53.29;101074.31;5043170;27;67677;-41
2023/03/02 12:21:18;;;;;;;;;;;;;;;33.31;53.21;101087.31;5053101;28;70603;-42
2023/03/02 12:23:48;;;;;;;;;;;;;;;33.17;53.74;101083.13;5050674;27;65426;-40
2023/03/02 12:26:18;;;;;;;;;;;;;;;32.97;55.01;101079.84;5050001;28;70356;-41
2023/03/02 12:28:56;;;;;;;;;;;;;;;32.85;55.58;101087.94;5042154;27;66139;-41
2023/03/02 12:31:38;;;;;;;;;;;;;;;32.72;56.16;101100.63;5055368;28;69114;-44
2023/03/02 12:34:20;;;;;;;;;;;;;;;32.62;56.70;101102.22;5041186;28;66965;-42
2023/03/02 12:36:53;;;;;;;;;;;;;;;32.57;56.98;101108.34;5040655;28;70145;-41
2023/03/02 12:39:30;;;;;;;;;;;;;;;32.58;56.58;101111.88;5058535;28;65811;-41
2023/03/02 12:42:03;;;;;;;;;;;;;;;32.68;56.30;101115.72;5048293;28;70203;-42
2023/03/02 12:44:53;;;;;;;;;;;;;;;32.76;55.86;101125.44;5046496;28;66592;-41
2023/03/02 12:47:28;;;;;;;;;;;;;;;32.82;55.38;101134.56;5048237;27;69455;-41
2023/03/02 12:50:04;;;;;;;;;;;;;;;32.80;55.10;101134.81;5045395;28;66497;-43
2023/03/02 12:52:36;;;;;;;;;;;;;;;32.84;54.51;101144.16;5038029;28;68796;-41
2023/03/02 12:55:17;;;;;;;;;;;;;;;32.83;53.81;101145.22;5079566;27;65710;-43
2023/03/02 12:57:49;;;;;;;;;;;;;;;32.85;52.64;101151.25;5052713;28;69782;-40
2023/03/02 13:00:22;;;;;;;;;;;;;;;32.85;52.37;101145.81;5049053;28;65624;-42
2023/03/02 13:02:55;;;;;;;;;;;;;;;32.84;51.80;101157.72;5051439;28;70542;-42
2023/03/02 13:05:31;;;;;;;;;;;;;;;32.84;51.61;101157.72;5044653;28;66692;-42